sensor_id;sensor_type;location;lat;lon;timestamp;pressure;altitude;pressure_sealevel;temperature;humidity
54306;BME280;66145;45.188;5.712;2023-04-10T00:02:12;99588.94;;;20.35;42.55
54306;BME280;66145;45.188;5.712;2023-04-10T00:04:37;99585.38;;;20.34;42.48
54306;BME280;66145;45.188;5.712;2023-04-10T00:07:03;99574.50;;;20.20;42.48
54306;BME280;66145;45.188;5.712;2023-04-10T00:09:29;99530.63;;;19.98;42.41
54306;BME280;66145;45.188;5.712;2023-04-10T00:11:55;99593.16;;;20.41;42.45
54306;BME280;66145;45.188;5.712;2023-04-10T00:14:20;99588.94;;;20.35;42.40
54306;BME280;66145;45.188;5.712;2023-04-10T00:16:50;99584.09;;;20.32;42.41
54306;BME280;66145;45.188;5.712;2023-04-10T00:19:16;99564.16;;;20.17;42.40
54306;BME280;66145;45.188;5.712;2023-04-10T00:21:41;99596.19;;;20.31;42.53
54306;BME280;66145;45.188;5.712;2023-04-10T00:24:07;99563.94;;;20.14;42.35
54306;BME280;66145;45.188;5.712;2023-04-10T00:26:33;99588.75;;;20.31;42.59
54306;BME280;66145;45.188;5.712;2023-04-10T00:28:59;99575.69;;;20.28;42.48
54306;BME280;66145;45.188;5.712;2023-04-10T00:31:24;99581.50;;;20.35;42.44
54306;BME280;66145;45.188;5.712;2023-04-10T00:33:50;99583.28;;;20.40;42.44
54306;BME280;66145;45.188;5.712;2023-04-10T00:36:17;99578.63;;;20.41;42.33
54306;BME280;66145;45.188;5.712;2023-04-10T00:38:42;99581.38;;;20.41;42.15
54306;BME280;66145;45.188;5.712;2023-04-10T00:41:08;99553.00;;;20.23;42.32
54306;BME280;66145;45.188;5.712;2023-04-10T00:43:33;99578.13;;;20.39;42.33
54306;BME280;66145;45.188;5.712;2023-04-10T00:45:58;99553.66;;;20.19;42.31
54306;BME280;66145;45.188;5.712;2023-04-10T00:48:25;99582.00;;;20.38;42.43
54306;BME280;66145;45.188;5.712;2023-04-10T00:50:50;99581.84;;;20.34;42.47
54306;BME280;66145;45.188;5.712;2023-04-10T00:53:16;99555.25;;;20.12;42.54
54306;BME280;66145;45.188;5.712;2023-04-10T00:55:42;99588.28;;;20.29;42.38
54306;BME280;66145;45.188;5.712;2023-04-10T00:58:07;99571.94;;;20.24;42.50
54306;BME280;66145;45.188;5.712;2023-04-10T01:00:37;99548.72;;;19.99;43.00
54306;BME280;66145;45.188;5.712;2023-04-10T01:03:02;99546.63;;;20.04;42.74
54306;BME280;66145;45.188;5.712;2023-04-10T01:05:34;99574.88;;;20.36;42.63
54306;BME280;66145;45.188;5.712;2023-04-10T01:11:06;99524.38;;;20.15;42.57
54306;BME280;66145;45.188;5.712;2023-04-10T01:13:40;99569.44;;;20.45;42.87
54306;BME280;66145;45.188;5.712;2023-04-10T01:16:15;99567.00;;;20.44;43.12
54306;BME280;66145;45.188;5.712;2023-04-10T01:21:30;99566.59;;;20.28;43.68
54306;BME280;66145;45.188;5.712;2023-04-10T01:27:19;99572.97;;;20.46;43.95
54306;BME280;66145;45.188;5.712;2023-04-10T01:29:51;99575.75;;;20.55;43.61
54306;BME280;66145;45.188;5.712;2023-04-10T01:32:21;99544.66;;;20.36;43.41
54306;BME280;66145;45.188;5.712;2023-04-10T01:34:50;99508.75;;;20.24;43.28
54306;BME280;66145;45.188;5.712;2023-04-10T01:37:20;99572.25;;;20.72;43.16
54306;BME280;66145;45.188;5.712;2023-04-10T01:39:49;99566.44;;;20.73;43.31
54306;BME280;66145;45.188;5.712;2023-04-10T01:42:17;99571.31;;;20.76;43.34
54306;BME280;66145;45.188;5.712;2023-04-10T01:44:45;99538.09;;;20.55;43.36
54306;BME280;66145;45.188;5.712;2023-04-10T01:47:14;99570.78;;;20.74;43.38
54306;BME280;66145;45.188;5.712;2023-04-10T01:49:43;99563.84;;;20.68;43.25
54306;BME280;66145;45.188;5.712;2023-04-10T01:52:10;99571.63;;;20.75;43.19
54306;BME280;66145;45.188;5.712;2023-04-10T01:54:36;99526.94;;;20.43;42.98
54306;BME280;66145;45.188;5.712;2023-04-10T01:57:03;99576.81;;;20.76;43.18
54306;BME280;66145;45.188;5.712;2023-04-10T01:59:28;99571.91;;;20.73;43.10
54306;BME280;66145;45.188;5.712;2023-04-10T02:01:59;99570.19;;;20.77;43.13
54306;BME280;66145;45.188;5.712;2023-04-10T02:04:25;99553.31;;;20.70;43.08
54306;BME280;66145;45.188;5.712;2023-04-10T02:07:07;99557.53;;;20.67;43.30
54306;BME280;66145;45.188;5.712;2023-04-10T02:09:53;99572.94;;;20.77;43.15
54306;BME280;66145;45.188;5.712;2023-04-10T02:12:27;99562.22;;;20.67;43.03
54306;BME280;66145;45.188;5.712;2023-04-10T02:14:56;99577.41;;;20.73;43.39
54306;BME280;66145;45.188;5.712;2023-04-10T02:17:27;99576.28;;;20.74;43.25
54306;BME280;66145;45.188;5.712;2023-04-10T02:19:54;99567.56;;;20.72;43.55
54306;BME280;66145;45.188;5.712;2023-04-10T02:22:22;99583.94;;;20.77;43.10
54306;BME280;66145;45.188;5.712;2023-04-10T02:24:50;99526.44;;;20.41;43.09
54306;BME280;66145;45.188;5.712;2023-04-10T02:27:15;99554.28;;;20.65;43.27
54306;BME280;66145;45.188;5.712;2023-04-10T02:29:40;99572.44;;;20.75;43.35
54306;BME280;66145;45.188;5.712;2023-04-10T02:32:06;99562.53;;;20.65;43.36
54306;BME280;66145;45.188;5.712;2023-04-10T02:34:31;99551.50;;;20.57;43.54
54306;BME280;66145;45.188;5.712;2023-04-10T02:36:56;99576.47;;;20.69;43.65
54306;BME280;66145;45.188;5.712;2023-04-10T02:39:22;99588.63;;;20.77;43.63
54306;BME280;66145;45.188;5.712;2023-04-10T02:41:47;99586.50;;;20.74;43.62
54306;BME280;66145;45.188;5.712;2023-04-10T02:44:13;99564.63;;;20.60;43.87
54306;BME280;66145;45.188;5.712;2023-04-10T02:46:38;99571.75;;;20.70;43.56
54306;BME280;66145;45.188;5.712;2023-04-10T02:49:04;99551.50;;;20.57;43.51
54306;BME280;66145;45.188;5.712;2023-04-10T02:51:33;99560.59;;;20.66;43.70
54306;BME280;66145;45.188;5.712;2023-04-10T02:54:00;99582.81;;;20.78;43.89
54306;BME280;66145;45.188;5.712;2023-04-10T02:56:25;99573.53;;;20.65;43.51
54306;BME280;66145;45.188;5.712;2023-04-10T02:58:51;99598.66;;;20.81;43.47
54306;BME280;66145;45.188;5.712;2023-04-10T03:01:16;99610.16;;;20.84;43.47
54306;BME280;66145;45.188;5.712;2023-04-10T03:03:42;99532.53;;;20.29;43.62
54306;BME280;66145;45.188;5.712;2023-04-10T03:06:08;99561.03;;;20.50;43.89
54306;BME280;66145;45.188;5.712;2023-04-10T03:08:33;99608.84;;;20.81;43.53
54306;BME280;66145;45.188;5.712;2023-04-10T03:10:58;99611.44;;;20.86;43.39
54306;BME280;66145;45.188;5.712;2023-04-10T03:13:24;99534.81;;;20.35;43.48
54306;BME280;66145;45.188;5.712;2023-04-10T03:15:50;99616.13;;;20.86;43.32
54306;BME280;66145;45.188;5.712;2023-04-10T03:18:15;99566.06;;;20.57;43.25
54306;BME280;66145;45.188;5.712;2023-04-10T03:20:40;99614.03;;;20.83;43.42
54306;BME280;66145;45.188;5.712;2023-04-10T03:23:06;99614.34;;;20.90;43.24
54306;BME280;66145;45.188;5.712;2023-04-10T03:25:34;99550.19;;;20.45;43.26
54306;BME280;66145;45.188;5.712;2023-04-10T03:27:59;99618.88;;;20.86;43.40
54306;BME280;66145;45.188;5.712;2023-04-10T03:30:25;99584.34;;;20.62;43.34
54306;BME280;66145;45.188;5.712;2023-04-10T03:32:51;99611.91;;;20.79;43.31
54306;BME280;66145;45.188;5.712;2023-04-10T03:35:16;99590.19;;;20.69;43.46
54306;BME280;66145;45.188;5.712;2023-04-10T03:37:41;99617.44;;;20.88;43.38
54306;BME280;66145;45.188;5.712;2023-04-10T03:40:09;99586.63;;;20.69;43.06
54306;BME280;66145;45.188;5.712;2023-04-10T03:42:35;99613.22;;;20.82;43.22
54306;BME280;66145;45.188;5.712;2023-04-10T03:45:00;99628.09;;;20.90;43.35
54306;BME280;66145;45.188;5.712;2023-04-10T03:47:31;99600.53;;;20.72;43.30
54306;BME280;66145;45.188;5.712;2023-04-10T03:49:57;99578.34;;;20.60;43.19
54306;BME280;66145;45.188;5.712;2023-04-10T03:52:25;99626.00;;;20.87;43.38
54306;BME280;66145;45.188;5.712;2023-04-10T03:54:52;99612.22;;;20.78;43.39
54306;BME280;66145;45.188;5.712;2023-04-10T03:57:18;99620.81;;;20.85;43.25
54306;BME280;66145;45.188;5.712;2023-04-10T03:59:45;99579.19;;;20.60;43.38
54306;BME280;66145;45.188;5.712;2023-04-10T04:02:11;99616.13;;;20.86;43.03
54306;BME280;66145;45.188;5.712;2023-04-10T04:04:36;99614.69;;;20.88;43.13
54306;BME280;66145;45.188;5.712;2023-04-10T04:07:01;99586.00;;;20.72;43.25
54306;BME280;66145;45.188;5.712;2023-04-10T04:09:27;99602.22;;;20.82;42.90
54306;BME280;66145;45.188;5.712;2023-04-10T04:11:52;99616.94;;;20.86;43.11
54306;BME280;66145;45.188;5.712;2023-04-10T04:14:17;99599.75;;;20.72;43.18
54306;BME280;66145;45.188;5.712;2023-04-10T04:16:43;99621.16;;;20.84;43.37
54306;BME280;66145;45.188;5.712;2023-04-10T04:19:08;99614.16;;;20.77;43.23
54306;BME280;66145;45.188;5.712;2023-04-10T04:21:33;99575.28;;;20.52;43.39
54306;BME280;66145;45.188;5.712;2023-04-10T04:23:59;99629.88;;;20.86;43.30
54306;BME280;66145;45.188;5.712;2023-04-10T04:26:24;99602.78;;;20.61;42.95
54306;BME280;66145;45.188;5.712;2023-04-10T04:28:50;99629.72;;;20.91;43.07
54306;BME280;66145;45.188;5.712;2023-04-10T04:31:15;99600.53;;;20.72;43.14
54306;BME280;66145;45.188;5.712;2023-04-10T04:33:41;99549.38;;;20.36;43.10
54306;BME280;66145;45.188;5.712;2023-04-10T04:36:06;99635.56;;;20.89;43.08
54306;BME280;66145;45.188;5.712;2023-04-10T04:38:32;99637.81;;;20.87;43.30
54306;BME280;66145;45.188;5.712;2023-04-10T04:40:57;99604.41;;;20.71;43.03
54306;BME280;66145;45.188;5.712;2023-04-10T04:43:22;99635.72;;;20.93;43.02
54306;BME280;66145;45.188;5.712;2023-04-10T04:45:48;99621.78;;;20.80;42.87
54306;BME280;66145;45.188;5.712;2023-04-10T04:48:13;99625.34;;;20.81;42.77
54306;BME280;66145;45.188;5.712;2023-04-10T04:50:39;99602.31;;;20.68;42.91
54306;BME280;66145;45.188;5.712;2023-04-10T04:53:06;99637.69;;;20.92;42.83
54306;BME280;66145;45.188;5.712;2023-04-10T04:55:31;99624.22;;;20.82;42.77
54306;BME280;66145;45.188;5.712;2023-04-10T04:57:57;99594.53;;;20.61;42.69
54306;BME280;66145;45.188;5.712;2023-04-10T05:00:22;99621.94;;;20.75;42.70
54306;BME280;66145;45.188;5.712;2023-04-10T05:02:47;99617.25;;;20.76;42.66
54306;BME280;66145;45.188;5.712;2023-04-10T05:05:13;99645.59;;;20.94;42.67
54306;BME280;66145;45.188;5.712;2023-04-10T05:07:38;99635.22;;;20.91;42.82
54306;BME280;66145;45.188;5.712;2023-04-10T05:10:04;99643.47;;;20.91;42.56
54306;BME280;66145;45.188;5.712;2023-04-10T05:12:29;99617.53;;;20.74;42.92
54306;BME280;66145;45.188;5.712;2023-04-10T05:14:55;99626.59;;;20.75;42.73
54306;BME280;66145;45.188;5.712;2023-04-10T05:17:20;99652.06;;;20.89;42.76
54306;BME280;66145;45.188;5.712;2023-04-10T05:19:46;99651.22;;;20.89;42.82
54306;BME280;66145;45.188;5.712;2023-04-10T05:22:11;99656.72;;;20.89;42.80
54306;BME280;66145;45.188;5.712;2023-04-10T05:24:36;99656.22;;;20.87;43.02
54306;BME280;66145;45.188;5.712;2023-04-10T05:27:02;99669.84;;;20.92;42.96
54306;BME280;66145;45.188;5.712;2023-04-10T05:29:27;99625.28;;;20.72;42.85
54306;BME280;66145;45.188;5.712;2023-04-10T05:31:52;99671.97;;;20.95;42.64
54306;BME280;66145;45.188;5.712;2023-04-10T05:34:18;99639.91;;;20.81;42.61
54306;BME280;66145;45.188;5.712;2023-04-10T05:36:43;99641.53;;;20.83;42.61
54306;BME280;66145;45.188;5.712;2023-04-10T05:39:08;99663.72;;;20.95;42.82
54306;BME280;66145;45.188;5.712;2023-04-10T05:41:34;99658.84;;;20.92;42.54
54306;BME280;66145;45.188;5.712;2023-04-10T05:44:00;99650.06;;;20.81;42.84
54306;BME280;66145;45.188;5.712;2023-04-10T05:46:25;99658.69;;;20.88;42.57
54306;BME280;66145;45.188;5.712;2023-04-10T05:48:50;99668.22;;;20.91;42.72
54306;BME280;66145;45.188;5.712;2023-04-10T05:51:16;99651.03;;;20.76;42.59
54306;BME280;66145;45.188;5.712;2023-04-10T05:53:41;99671.59;;;20.88;42.84
54306;BME280;66145;45.188;5.712;2023-04-10T05:56:07;99669.00;;;20.83;42.82
54306;BME280;66145;45.188;5.712;2023-04-10T05:58:32;99649.41;;;20.75;42.83
54306;BME280;66145;45.188;5.712;2023-04-10T06:00:58;99607.25;;;20.48;42.51
54306;BME280;66145;45.188;5.712;2023-04-10T06:03:23;99616.50;;;20.52;42.69
54306;BME280;66145;45.188;5.712;2023-04-10T06:05:48;99653.78;;;20.76;42.59
54306;BME280;66145;45.188;5.712;2023-04-10T06:08:14;99688.78;;;20.93;42.59
54306;BME280;66145;45.188;5.712;2023-04-10T06:10:40;99686.84;;;20.94;42.83
54306;BME280;66145;45.188;5.712;2023-04-10T06:13:05;99646.06;;;20.56;42.83
54306;BME280;66145;45.188;5.712;2023-04-10T06:15:30;99679.53;;;20.80;42.88
54306;BME280;66145;45.188;5.712;2023-04-10T06:17:56;99670.09;;;20.73;43.02
54306;BME280;66145;45.188;5.712;2023-04-10T06:20:21;99678.69;;;20.80;42.95
54306;BME280;66145;45.188;5.712;2023-04-10T06:22:47;99678.06;;;20.83;42.99
54306;BME280;66145;45.188;5.712;2023-04-10T06:25:12;99682.28;;;20.89;42.69
54306;BME280;66145;45.188;5.712;2023-04-10T06:27:38;99694.75;;;20.95;42.64
54306;BME280;66145;45.188;5.712;2023-04-10T06:30:04;99686.97;;;20.89;42.73
54306;BME280;66145;45.188;5.712;2023-04-10T06:32:29;99694.09;;;20.90;42.85
54306;BME280;66145;45.188;5.712;2023-04-10T06:34:55;99662.63;;;20.73;42.59
54306;BME280;66145;45.188;5.712;2023-04-10T06:37:30;99695.09;;;20.94;42.90
54306;BME280;66145;45.188;5.712;2023-04-10T06:40:04;99682.91;;;20.77;42.82
54306;BME280;66145;45.188;5.712;2023-04-10T06:42:30;99677.56;;;20.81;42.73
54306;BME280;66145;45.188;5.712;2023-04-10T06:44:55;99701.72;;;20.93;42.83
54306;BME280;66145;45.188;5.712;2023-04-10T06:47:20;99688.44;;;20.86;43.04
54306;BME280;66145;45.188;5.712;2023-04-10T06:49:46;99664.59;;;20.73;42.76
54306;BME280;66145;45.188;5.712;2023-04-10T06:52:11;99685.72;;;20.95;42.62
54306;BME280;66145;45.188;5.712;2023-04-10T06:54:36;99698.34;;;20.96;42.56
54306;BME280;66145;45.188;5.712;2023-04-10T06:57:02;99673.19;;;20.80;42.58
54306;BME280;66145;45.188;5.712;2023-04-10T06:59:27;99701.06;;;20.96;42.62
54306;BME280;66145;45.188;5.712;2023-04-10T07:01:53;99692.66;;;20.92;42.69
54306;BME280;66145;45.188;5.712;2023-04-10T07:04:18;99668.34;;;20.77;42.74
54306;BME280;66145;45.188;5.712;2023-04-10T07:06:44;99676.94;;;20.84;42.97
54306;BME280;66145;45.188;5.712;2023-04-10T07:09:09;99673.06;;;20.85;42.63
54306;BME280;66145;45.188;5.712;2023-04-10T07:11:35;99693.56;;;20.79;43.51
54306;BME280;66145;45.188;5.712;2023-04-10T07:14:00;99623.38;;;20.41;43.00
54306;BME280;66145;45.188;5.712;2023-04-10T07:16:25;99658.09;;;20.69;42.74
54306;BME280;66145;45.188;5.712;2023-04-10T07:18:51;99684.09;;;20.94;42.40
54306;BME280;66145;45.188;5.712;2023-04-10T07:21:17;99668.56;;;20.89;42.68
54306;BME280;66145;45.188;5.712;2023-04-10T07:23:42;99631.72;;;20.67;42.63
54306;BME280;66145;45.188;5.712;2023-04-10T07:26:07;99678.59;;;20.94;42.89
54306;BME280;66145;45.188;5.712;2023-04-10T07:28:33;99681.34;;;20.94;42.85
54306;BME280;66145;45.188;5.712;2023-04-10T07:30:58;99679.72;;;20.93;42.77
54306;BME280;66145;45.188;5.712;2023-04-10T07:33:23;99636.56;;;20.62;43.08
54306;BME280;66145;45.188;5.712;2023-04-10T07:35:49;99671.47;;;20.93;42.95
54306;BME280;66145;45.188;5.712;2023-04-10T07:38:14;99671.63;;;20.96;43.03
54306;BME280;66145;45.188;5.712;2023-04-10T07:40:39;99676.53;;;21.08;43.03
54306;BME280;66145;45.188;5.712;2023-04-10T07:43:05;99680.09;;;21.09;43.20
54306;BME280;66145;45.188;5.712;2023-04-10T07:45:30;99591.19;;;20.33;43.51
54306;BME280;66145;45.188;5.712;2023-04-10T07:47:56;99647.09;;;20.69;43.32
54306;BME280;66145;45.188;5.712;2023-04-10T07:50:23;99661.84;;;20.73;43.27
54306;BME280;66145;45.188;5.712;2023-04-10T07:52:48;99671.88;;;20.14;42.69
54306;BME280;66145;45.188;5.712;2023-04-10T07:55:14;99686.16;;;20.25;42.56
54306;BME280;66145;45.188;5.712;2023-04-10T07:57:39;99681.53;;;20.34;42.83
54306;BME280;66145;45.188;5.712;2023-04-10T08:00:05;99661.63;;;20.29;42.63
54306;BME280;66145;45.188;5.712;2023-04-10T08:02:31;99634.72;;;20.17;42.79
54306;BME280;66145;45.188;5.712;2023-04-10T08:04:56;99667.03;;;20.43;42.68
54306;BME280;66145;45.188;5.712;2023-04-10T08:07:22;99672.88;;;20.50;42.56
54306;BME280;66145;45.188;5.712;2023-04-10T08:09:47;99679.69;;;20.52;42.73
54306;BME280;66145;45.188;5.712;2023-04-10T08:12:12;99683.88;;;20.50;42.91
54306;BME280;66145;45.188;5.712;2023-04-10T08:14:38;99643.03;;;20.26;43.15
54306;BME280;66145;45.188;5.712;2023-04-10T08:17:03;99669.47;;;20.44;43.28
54306;BME280;66145;45.188;5.712;2023-04-10T08:19:29;99653.72;;;20.27;43.21
54306;BME280;66145;45.188;5.712;2023-04-10T08:21:54;99625.53;;;20.13;43.09
54306;BME280;66145;45.188;5.712;2023-04-10T08:24:20;99678.81;;;20.43;43.31
54306;BME280;66145;45.188;5.712;2023-04-10T08:26:47;99664.03;;;20.30;43.16
54306;BME280;66145;45.188;5.712;2023-04-10T08:29:12;99601.56;;;20.04;43.28
54306;BME280;66145;45.188;5.712;2023-04-10T08:31:38;99637.22;;;20.27;43.15
54306;BME280;66145;45.188;5.712;2023-04-10T08:34:03;99642.06;;;20.30;43.43
54306;BME280;66145;45.188;5.712;2023-04-10T08:36:28;99665.91;;;20.44;43.64
54306;BME280;66145;45.188;5.712;2023-04-10T08:38:55;99637.53;;;20.26;43.36
54306;BME280;66145;45.188;5.712;2023-04-10T08:41:20;99668.97;;;20.42;43.06
54306;BME280;66145;45.188;5.712;2023-04-10T08:43:46;99669.59;;;20.39;43.49
54306;BME280;66145;45.188;5.712;2023-04-10T08:46:12;99665.66;;;20.31;43.40
54306;BME280;66145;45.188;5.712;2023-04-10T08:48:51;99663.13;;;20.35;43.52
54306;BME280;66145;45.188;5.712;2023-04-10T08:51:22;99656.31;;;20.32;43.51
54306;BME280;66145;45.188;5.712;2023-04-10T08:53:53;99661.94;;;20.27;43.74
54306;BME280;66145;45.188;5.712;2023-04-10T08:56:23;99645.22;;;20.15;43.66
54306;BME280;66145;45.188;5.712;2023-04-10T08:58:50;99657.09;;;20.24;43.83
54306;BME280;66145;45.188;5.712;2023-04-10T09:01:18;99642.34;;;20.20;43.87
54306;BME280;66145;45.188;5.712;2023-04-10T09:03:46;99668.41;;;20.31;44.04
54306;BME280;66145;45.188;5.712;2023-04-10T09:06:12;99656.47;;;20.27;44.04
54306;BME280;66145;45.188;5.712;2023-04-10T09:08:37;99617.47;;;19.94;43.72
54306;BME280;66145;45.188;5.712;2023-04-10T09:11:04;99657.31;;;20.14;43.19
54306;BME280;66145;45.188;5.712;2023-04-10T09:13:41;99660.53;;;20.07;42.71
54306;BME280;66145;45.188;5.712;2023-04-10T09:16:08;99636.94;;;19.83;42.25
54306;BME280;66145;45.188;5.712;2023-04-10T09:18:50;99651.03;;;19.90;42.02
54306;BME280;66145;45.188;5.712;2023-04-10T09:21:18;99643.72;;;19.86;41.85
54306;BME280;66145;45.188;5.712;2023-04-10T09:23:44;99653.59;;;19.87;41.27
54306;BME280;66145;45.188;5.712;2023-04-10T09:26:29;99649.75;;;19.88;41.79
54306;BME280;66145;45.188;5.712;2023-04-10T09:29:03;99614.91;;;19.74;41.73
54306;BME280;66145;45.188;5.712;2023-04-10T09:31:34;99647.91;;;20.06;41.32
54306;BME280;66145;45.188;5.712;2023-04-10T09:34:07;99632.72;;;20.00;40.07
54306;BME280;66145;45.188;5.712;2023-04-10T09:36:33;99579.00;;;19.62;39.71
54306;BME280;66145;45.188;5.712;2023-04-10T09:38:58;99637.56;;;20.03;39.77
54306;BME280;66145;45.188;5.712;2023-04-10T09:41:27;99624.41;;;19.91;40.77
54306;BME280;66145;45.188;5.712;2023-04-10T09:44:09;99623.41;;;19.87;39.75
54306;BME280;66145;45.188;5.712;2023-04-10T09:46:36;99615.59;;;19.80;40.09
54306;BME280;66145;45.188;5.712;2023-04-10T09:49:01;99592.72;;;19.62;40.20
54306;BME280;66145;45.188;5.712;2023-04-10T09:51:38;99553.59;;;19.34;40.15
54306;BME280;66145;45.188;5.712;2023-04-10T09:54:03;99585.91;;;19.59;40.94
54306;BME280;66145;45.188;5.712;2023-04-10T09:56:29;99599.56;;;19.73;39.92
54306;BME280;66145;45.188;5.712;2023-04-10T09:58:59;99555.13;;;19.40;40.03
54306;BME280;66145;45.188;5.712;2023-04-10T10:01:27;99596.56;;;19.61;40.29
54306;BME280;66145;45.188;5.712;2023-04-10T10:04:01;99599.81;;;19.63;39.99
54306;BME280;66145;45.188;5.712;2023-04-10T10:06:31;99596.19;;;19.54;40.27
54306;BME280;66145;45.188;5.712;2023-04-10T10:09:01;99556.16;;;19.30;39.27
54306;BME280;66145;45.188;5.712;2023-04-10T10:11:31;99592.56;;;19.67;39.15
54306;BME280;66145;45.188;5.712;2023-04-10T10:13:57;99569.13;;;19.61;39.71
54306;BME280;66145;45.188;5.712;2023-04-10T10:16:33;99594.22;;;19.91;40.40
54306;BME280;66145;45.188;5.712;2023-04-10T10:19:05;99591.03;;;19.98;39.99
54306;BME280;66145;45.188;5.712;2023-04-10T10:21:33;99588.78;;;20.00;39.77
54306;BME280;66145;45.188;5.712;2023-04-10T10:24:01;99582.66;;;20.03;40.19
54306;BME280;66145;45.188;5.712;2023-04-10T10:26:31;99582.00;;;20.06;40.42
54306;BME280;66145;45.188;5.712;2023-04-10T10:29:02;99576.72;;;20.10;40.38
54306;BME280;66145;45.188;5.712;2023-04-10T10:31:30;99574.47;;;20.12;40.51
54306;BME280;66145;45.188;5.712;2023-04-10T10:34:00;99585.78;;;20.19;40.58
54306;BME280;66145;45.188;5.712;2023-04-10T10:36:34;99558.44;;;20.05;41.20
54306;BME280;66145;45.188;5.712;2023-04-10T10:39:31;99573.06;;;20.23;41.22
54306;BME280;66145;45.188;5.712;2023-04-10T10:44:47;99571.94;;;20.24;41.44
54306;BME280;66145;45.188;5.712;2023-04-10T10:47:26;99561.63;;;20.30;41.54
54306;BME280;66145;45.188;5.712;2023-04-10T10:52:44;99555.66;;;20.36;41.15
54306;BME280;66145;45.188;5.712;2023-04-10T10:58:07;99534.47;;;20.28;41.49
54306;BME280;66145;45.188;5.712;2023-04-10T11:06:02;99532.81;;;20.18;41.54
54306;BME280;66145;45.188;5.712;2023-04-10T11:08:35;99516.72;;;19.94;41.54
54306;BME280;66145;45.188;5.712;2023-04-10T11:11:05;99532.41;;;20.02;41.96
54306;BME280;66145;45.188;5.712;2023-04-10T11:13:35;99507.59;;;19.85;42.04
54306;BME280;66145;45.188;5.712;2023-04-10T11:16:03;99535.63;;;19.96;42.63
54306;BME280;66145;45.188;5.712;2023-04-10T11:23:35;99489.69;;;19.56;42.51
54306;BME280;66145;45.188;5.712;2023-04-10T11:26:01;99520.78;;;19.74;42.14
54306;BME280;66145;45.188;5.712;2023-04-10T11:28:37;99525.00;;;19.80;41.89
54306;BME280;66145;45.188;5.712;2023-04-10T11:33:42;99506.88;;;19.70;41.09
54306;BME280;66145;45.188;5.712;2023-04-10T11:36:09;99534.94;;;19.90;40.89
54306;BME280;66145;45.188;5.712;2023-04-10T11:38:37;99508.22;;;19.82;40.61
54306;BME280;66145;45.188;5.712;2023-04-10T11:41:03;99511.47;;;19.84;40.25
54306;BME280;66145;45.188;5.712;2023-04-10T11:43:31;99520.97;;;20.09;39.90
54306;BME280;66145;45.188;5.712;2023-04-10T11:46:02;99524.06;;;20.08;40.05
54306;BME280;66145;45.188;5.712;2023-04-10T11:48:29;99528.09;;;20.10;40.39
54306;BME280;66145;45.188;5.712;2023-04-10T11:50:55;99539.56;;;20.12;40.31
54306;BME280;66145;45.188;5.712;2023-04-10T11:53:20;99525.03;;;20.12;40.50
54306;BME280;66145;45.188;5.712;2023-04-10T11:55:46;99488.78;;;19.92;40.53
54306;BME280;66145;45.188;5.712;2023-04-10T11:58:25;99494.09;;;19.88;40.64
54306;BME280;66145;45.188;5.712;2023-04-10T12:01:09;99508.19;;;20.04;40.62
54306;BME280;66145;45.188;5.712;2023-04-10T12:03:41;99487.69;;;20.02;40.84
54306;BME280;66145;45.188;5.712;2023-04-10T12:06:12;99477.97;;;19.96;40.87
54306;BME280;66145;45.188;5.712;2023-04-10T12:08:40;99490.59;;;20.05;41.07
54306;BME280;66145;45.188;5.712;2023-04-10T12:11:06;99448.22;;;19.89;40.99
54306;BME280;66145;45.188;5.712;2023-04-10T12:13:32;99459.06;;;19.94;41.09
54306;BME280;66145;45.188;5.712;2023-04-10T12:15:59;99474.13;;;20.05;41.03
54306;BME280;66145;45.188;5.712;2023-04-10T12:18:26;99484.47;;;20.09;41.27
54306;BME280;66145;45.188;5.712;2023-04-10T12:20:52;99458.75;;;19.96;41.22
54306;BME280;66145;45.188;5.712;2023-04-10T12:23:24;99447.44;;;19.88;41.29
54306;BME280;66145;45.188;5.712;2023-04-10T12:25:51;99465.22;;;20.00;41.30
54306;BME280;66145;45.188;5.712;2023-04-10T12:28:19;99446.91;;;19.86;41.38
54306;BME280;66145;45.188;5.712;2023-04-10T12:30:48;99468.63;;;20.05;41.54
54306;BME280;66145;45.188;5.712;2023-04-10T12:33:22;99460.03;;;19.98;41.15
54306;BME280;66145;45.188;5.712;2023-04-10T12:35:48;99455.00;;;19.91;41.30
54306;BME280;66145;45.188;5.712;2023-04-10T12:38:14;99432.66;;;19.75;41.22
54306;BME280;66145;45.188;5.712;2023-04-10T12:40:59;99452.75;;;19.94;41.34
54306;BME280;66145;45.188;5.712;2023-04-10T12:43:33;99445.03;;;19.96;41.35
54306;BME280;66145;45.188;5.712;2023-04-10T12:45:59;99426.28;;;19.89;40.99
54306;BME280;66145;45.188;5.712;2023-04-10T12:48:25;99459.28;;;20.06;41.21
54306;BME280;66145;45.188;5.712;2023-04-10T12:50:51;99450.38;;;20.01;41.01
54306;BME280;66145;45.188;5.712;2023-04-10T12:53:16;99427.81;;;19.81;41.24
54306;BME280;66145;45.188;5.712;2023-04-10T12:56:01;99453.63;;;20.03;40.97
54306;BME280;66145;45.188;5.712;2023-04-10T12:58:28;99426.06;;;19.85;40.85
54306;BME280;66145;45.188;5.712;2023-04-10T13:00:56;99443.56;;;19.98;40.80
54306;BME280;66145;45.188;5.712;2023-04-10T13:03:22;99444.22;;;19.95;40.99
54306;BME280;66145;45.188;5.712;2023-04-10T13:05:48;99429.19;;;19.93;40.95
54306;BME280;66145;45.188;5.712;2023-04-10T13:08:13;99382.81;;;19.51;41.26
54306;BME280;66145;45.188;5.712;2023-04-10T13:10:39;99443.41;;;19.95;40.83
54306;BME280;66145;45.188;5.712;2023-04-10T13:13:06;99433.19;;;19.86;40.95
54306;BME280;66145;45.188;5.712;2023-04-10T13:15:33;99432.56;;;19.89;40.88
54306;BME280;66145;45.188;5.712;2023-04-10T13:18:01;99422.91;;;19.92;40.98
54306;BME280;66145;45.188;5.712;2023-04-10T13:20:27;99430.81;;;19.94;40.38
54306;BME280;66145;45.188;5.712;2023-04-10T13:22:52;99423.88;;;19.96;40.57
54306;BME280;66145;45.188;5.712;2023-04-10T13:25:17;99406.38;;;19.83;40.60
54306;BME280;66145;45.188;5.712;2023-04-10T13:27:43;99394.72;;;19.78;40.75
54306;BME280;66145;45.188;5.712;2023-04-10T13:30:08;99421.56;;;19.89;40.64
54306;BME280;66145;45.188;5.712;2023-04-10T13:32:33;99413.34;;;19.89;40.68